createdAt,value
2017-08-17T00:01:21.352Z,4.40
2017-08-17T00:03:50.301Z,5.40
2017-08-17T00:06:21.755Z,4.83
2017-08-17T00:08:54.022Z,4.30
2017-08-17T00:11:25.263Z,4.70
2017-08-17T00:13:54.933Z,4.43
2017-08-17T00:16:27.245Z,4.80
2017-08-17T00:18:56.796Z,4.83
2017-08-17T00:21:27.170Z,5.13
2017-08-17T00:23:57.802Z,4.63
2017-08-17T00:26:29.573Z,5.13
2017-08-17T00:28:59.063Z,4.63
2017-08-17T00:31:32.713Z,5.03
2017-08-17T00:34:02.369Z,4.63
2017-08-17T00:36:32.082Z,4.53
2017-08-17T00:39:02.708Z,5.13
2017-08-17T00:41:30.934Z,4.87
2017-08-17T00:44:01.921Z,4.57
2017-08-17T00:46:31.259Z,4.40
2017-08-17T00:49:03.384Z,5.30
2017-08-17T00:51:35.946Z,5.47
2017-08-17T00:54:07.169Z,5.13
2017-08-17T00:56:40.180Z,4.67
2017-08-17T00:59:10.540Z,4.70
2017-08-17T01:01:39.853Z,5.00
2017-08-17T01:04:10.790Z,4.87
2017-08-17T01:06:40.386Z,5.40
2017-08-17T01:09:17.732Z,4.90
2017-08-17T01:11:46.217Z,4.20
2017-08-17T01:14:16.834Z,4.73
2017-08-17T01:16:46.558Z,5.03
2017-08-17T01:19:15.759Z,5.20
2017-08-17T01:21:46.421Z,4.40
2017-08-17T01:24:14.911Z,4.80
2017-08-17T01:26:47.444Z,3.70
2017-08-17T01:29:18.834Z,5.10
2017-08-17T01:31:49.156Z,5.33
2017-08-17T01:34:22.119Z,5.13
2017-08-17T01:36:51.776Z,4.60
2017-08-17T01:39:21.532Z,5.00
2017-08-17T01:41:54.061Z,4.50
2017-08-17T01:44:23.786Z,4.90
2017-08-17T01:46:52.686Z,4.90
2017-08-17T01:49:24.547Z,5.30
2017-08-17T01:51:57.539Z,4.93
2017-08-17T01:54:26.583Z,4.73
2017-08-17T01:56:56.672Z,5.03
2017-08-17T01:59:28.811Z,4.80
2017-08-17T02:02:02.513Z,4.53
2017-08-17T02:04:34.724Z,4.40
2017-08-17T02:07:07.050Z,4.37
2017-08-17T02:09:42.291Z,5.20
2017-08-17T02:12:14.830Z,5.53
2017-08-17T02:14:44.816Z,4.50
2017-08-17T02:17:14.911Z,4.03
2017-08-17T02:19:45.098Z,5.30
2017-08-17T02:22:16.744Z,5.10
2017-08-17T02:24:51.211Z,4.80
2017-08-17T02:27:21.231Z,4.70
2017-08-17T02:29:53.092Z,5.00
2017-08-17T02:32:25.993Z,4.73
2017-08-17T02:34:56.884Z,5.37
2017-08-17T02:37:26.389Z,4.67
2017-08-17T02:39:57.530Z,5.10
2017-08-17T02:42:25.864Z,5.60
2017-08-17T02:44:55.253Z,5.10
2017-08-17T02:47:27.824Z,4.53
2017-08-17T02:49:59.480Z,4.53
2017-08-17T02:52:32.772Z,4.60
2017-08-17T02:55:03.917Z,4.97
2017-08-17T02:57:33.339Z,4.50
2017-08-17T03:00:02.618Z,4.77
2017-08-17T03:02:33.895Z,4.30
2017-08-17T03:05:08.781Z,4.97
2017-08-17T03:07:37.693Z,4.93
2017-08-17T03:10:09.336Z,4.90
2017-08-17T03:12:42.842Z,4.40
2017-08-17T03:15:12.940Z,5.10
2017-08-17T03:17:41.551Z,4.77
2017-08-17T03:20:14.295Z,4.80
2017-08-17T03:22:43.177Z,3.93
2017-08-17T03:25:13.732Z,4.70
2017-08-17T03:27:47.419Z,5.00
2017-08-17T03:30:15.839Z,4.70
2017-08-17T03:32:45.141Z,5.20
2017-08-17T03:35:16.898Z,5.10
2017-08-17T03:37:46.166Z,5.20
2017-08-17T03:40:16.676Z,5.27
2017-08-17T03:42:47.720Z,4.50
2017-08-17T03:45:22.090Z,4.40
2017-08-17T03:47:57.803Z,3.90
2017-08-17T03:50:26.896Z,4.83
2017-08-17T03:52:57.467Z,4.80
2017-08-17T03:55:25.175Z,4.87
2017-08-17T03:57:55.705Z,4.70
2017-08-17T04:00:27.709Z,4.60
2017-08-17T04:02:56.762Z,4.23
2017-08-17T04:05:26.880Z,4.87
2017-08-17T04:07:55.260Z,4.37
2017-08-17T04:10:24.601Z,4.27
2017-08-17T04:12:54.257Z,4.50
2017-08-17T04:15:24.033Z,4.50
2017-08-17T04:17:53.558Z,5.10
2017-08-17T04:20:24.808Z,4.80
2017-08-17T04:22:54.558Z,4.27
2017-08-17T04:25:28.616Z,4.90
2017-08-17T04:27:57.890Z,5.47
2017-08-17T04:30:29.807Z,5.17
2017-08-17T04:33:00.799Z,4.20
2017-08-17T04:35:29.023Z,5.23
2017-08-17T04:37:57.248Z,4.67
2017-08-17T04:40:26.803Z,4.60
2017-08-17T04:42:56.153Z,4.53
2017-08-17T04:45:25.345Z,5.30
2017-08-17T04:47:54.585Z,5.63
2017-08-17T04:50:24.800Z,4.80
2017-08-17T04:52:55.738Z,4.50
2017-08-17T04:55:26.399Z,5.20
2017-08-17T04:58:24.037Z,4.77
2017-08-17T05:00:55.039Z,5.47
2017-08-17T05:03:26.011Z,5.30
2017-08-17T05:05:58.214Z,5.33
2017-08-17T05:08:30.558Z,5.20
2017-08-17T05:10:59.400Z,5.70
2017-08-17T05:13:31.646Z,5.03
2017-08-17T05:16:05.828Z,5.60
2017-08-17T05:18:35.316Z,5.00
2017-08-17T05:21:04.708Z,5.47
2017-08-17T05:23:37.621Z,4.97
2017-08-17T05:26:10.694Z,4.90
2017-08-17T05:28:41.386Z,4.70
2017-08-17T05:31:12.178Z,4.50
2017-08-17T05:33:45.203Z,5.00
2017-08-17T05:36:16.503Z,4.87
2017-08-17T05:38:44.987Z,4.80
2017-08-17T05:41:18.046Z,4.90
2017-08-17T05:43:47.883Z,4.50
2017-08-17T05:46:20.465Z,4.60
2017-08-17T05:48:50.048Z,5.47
2017-08-17T05:51:21.516Z,4.53
2017-08-17T05:53:54.858Z,4.57
2017-08-17T05:56:22.572Z,4.63
2017-08-17T05:58:53.087Z,4.40
2017-08-17T06:01:24.290Z,4.70
2017-08-17T06:03:56.513Z,4.80
2017-08-17T06:06:29.495Z,4.70
2017-08-17T06:09:00.861Z,4.55
2017-08-17T06:11:33.663Z,4.80
2017-08-17T06:14:05.217Z,4.00
2017-08-17T06:19:21.464Z,4.43
2017-08-17T06:21:54.216Z,4.73
2017-08-17T06:24:27.360Z,4.60
2017-08-17T06:26:57.406Z,4.20
2017-08-17T06:29:29.128Z,3.90
2017-08-17T06:32:00.628Z,4.80
2017-08-17T06:34:33.991Z,5.00
2017-08-17T06:37:05.932Z,4.27
2017-08-17T06:39:37.510Z,4.40
2017-08-17T06:42:08.882Z,5.00
2017-08-17T06:44:41.862Z,4.33
2017-08-17T06:47:17.361Z,4.17
2017-08-17T06:49:48.746Z,4.40
2017-08-17T06:52:20.310Z,3.87
2017-08-17T06:54:54.922Z,4.20
2017-08-17T06:57:27.983Z,4.47
2017-08-17T06:59:56.834Z,4.40
2017-08-17T07:02:28.471Z,4.33
2017-08-17T07:05:00.631Z,4.57
2017-08-17T07:07:32.110Z,4.47
2017-08-17T07:10:00.099Z,3.90
2017-08-17T07:12:33.731Z,4.37
2017-08-17T07:15:02.736Z,3.70
2017-08-17T07:17:34.885Z,4.03
2017-08-17T07:20:06.416Z,4.30
2017-08-17T07:22:37.762Z,4.27
2017-08-17T07:25:09.213Z,4.20
2017-08-17T07:27:39.758Z,4.53
2017-08-17T07:30:10.678Z,4.83
2017-08-17T07:32:40.738Z,4.70
2017-08-17T07:35:10.126Z,5.20
2017-08-17T07:37:38.107Z,4.97
2017-08-17T07:40:08.581Z,5.13
2017-08-17T07:42:39.625Z,4.87
2017-08-17T07:45:07.280Z,5.30
2017-08-17T07:47:36.449Z,5.10
2017-08-17T07:50:05.929Z,4.70
2017-08-17T07:52:36.516Z,4.50
2017-08-17T07:55:05.655Z,5.37
2017-08-17T07:57:35.253Z,5.30
2017-08-17T08:00:03.485Z,4.77
2017-08-17T08:02:31.194Z,5.53
2017-08-17T08:05:04.266Z,4.73
2017-08-17T08:07:35.274Z,5.20
2017-08-17T08:10:04.298Z,5.63
2017-08-17T08:12:34.183Z,5.23
2017-08-17T08:15:04.979Z,5.70
2017-08-17T08:17:37.263Z,5.10
2017-08-17T08:20:08.883Z,5.20
2017-08-17T08:22:41.310Z,4.90
2017-08-17T08:25:14.036Z,5.40
2017-08-17T08:27:44.456Z,5.73
2017-08-17T08:30:15.599Z,5.80
2017-08-17T08:32:47.343Z,5.60
2017-08-17T08:35:18.402Z,5.30
2017-08-17T08:37:50.258Z,5.10
2017-08-17T08:40:22.720Z,5.07
2017-08-17T08:42:54.700Z,5.70
2017-08-17T08:45:27.672Z,5.47
2017-08-17T08:47:59.241Z,4.67
2017-08-17T08:50:32.075Z,5.80
2017-08-17T08:53:02.808Z,6.57
2017-08-17T08:55:36.676Z,5.63
2017-08-17T08:58:08.674Z,6.03
2017-08-17T09:00:39.507Z,5.67
2017-08-17T09:03:08.132Z,5.53
2017-08-17T09:05:38.240Z,5.20
2017-08-17T09:08:07.816Z,5.60
2017-08-17T09:10:37.425Z,5.60
2017-08-17T09:13:12.185Z,5.07
2017-08-17T09:15:44.098Z,5.10
2017-08-17T09:18:14.474Z,5.03
2017-08-17T09:20:45.955Z,5.30
2017-08-17T09:23:19.995Z,4.97
2017-08-17T09:25:53.017Z,5.83
2017-08-17T09:28:20.677Z,4.53
2017-08-17T09:30:51.921Z,4.63
2017-08-17T09:33:21.862Z,4.83
2017-08-17T09:35:52.525Z,5.07
2017-08-17T09:38:22.769Z,5.10
2017-08-17T09:40:53.236Z,4.73
2017-08-17T09:43:23.810Z,4.90
2017-08-17T09:45:54.576Z,5.13
2017-08-17T09:48:26.528Z,5.50
2017-08-17T09:50:55.361Z,6.63
2017-08-17T09:53:27.185Z,4.43
2017-08-17T09:55:55.892Z,4.80
2017-08-17T09:58:26.908Z,5.20
2017-08-17T10:00:57.846Z,4.43
2017-08-17T10:03:27.417Z,4.80
2017-08-17T10:05:56.590Z,4.70
2017-08-17T10:08:29.189Z,5.20
2017-08-17T10:11:02.276Z,4.87
2017-08-17T10:13:33.055Z,4.90
2017-08-17T10:16:07.516Z,5.40
2017-08-17T10:18:36.379Z,4.47
2017-08-17T10:21:07.649Z,4.60
2017-08-17T10:23:37.847Z,5.10
2017-08-17T10:26:08.074Z,3.80
2017-08-17T10:28:39.194Z,4.20
2017-08-17T10:31:09.296Z,4.50
2017-08-17T10:33:42.641Z,4.13
2017-08-17T10:36:13.862Z,4.50
2017-08-17T10:38:46.273Z,4.33
2017-08-17T10:41:18.201Z,4.17
2017-08-17T10:44:05.024Z,4.33
2017-08-17T10:46:38.029Z,4.17
2017-08-17T10:49:08.949Z,4.47
2017-08-17T10:51:38.042Z,4.10
2017-08-17T10:54:08.668Z,4.30
2017-08-17T10:56:38.792Z,3.83
2017-08-17T10:59:10.659Z,4.47
2017-08-17T11:01:40.240Z,4.20
2017-08-17T11:04:09.388Z,3.93
2017-08-17T11:06:39.163Z,4.20
2017-08-17T11:09:07.746Z,4.43
2017-08-17T11:11:37.353Z,4.20
2017-08-17T11:14:05.831Z,4.17
2017-08-17T11:16:37.802Z,3.70
2017-08-17T11:19:07.679Z,4.10
2017-08-17T11:21:36.161Z,4.60
2017-08-17T11:24:05.767Z,4.07
2017-08-17T11:26:34.885Z,4.03
2017-08-17T11:29:06.086Z,3.60
2017-08-17T11:31:34.972Z,4.30
2017-08-17T11:34:03.823Z,3.97
2017-08-17T11:36:35.343Z,4.10
2017-08-17T11:39:10.482Z,4.20
2017-08-17T11:41:41.176Z,4.00
2017-08-17T11:44:10.905Z,4.00
2017-08-17T11:46:39.772Z,4.20
2017-08-17T11:49:08.970Z,4.50
2017-08-17T11:51:41.034Z,4.00
2017-08-17T11:54:13.661Z,4.00
2017-08-17T11:56:45.079Z,3.70
2017-08-17T11:59:15.820Z,3.63
2017-08-17T12:01:46.060Z,4.93
2017-08-17T12:04:18.945Z,4.43
2017-08-17T12:06:48.674Z,4.00
2017-08-17T12:09:19.669Z,3.83
2017-08-17T12:11:48.346Z,4.50
2017-08-17T12:14:22.222Z,3.43
2017-08-17T12:16:55.832Z,4.30
2017-08-17T12:19:27.045Z,3.67
2017-08-17T12:21:57.946Z,4.27
2017-08-17T12:24:26.777Z,4.10
2017-08-17T12:26:57.098Z,4.33
2017-08-17T12:29:29.308Z,3.97
2017-08-17T12:32:01.940Z,4.03
2017-08-17T12:34:35.717Z,4.23
2017-08-17T12:37:06.907Z,3.90
2017-08-17T12:39:37.799Z,4.30
2017-08-17T12:42:08.672Z,3.50
2017-08-17T12:44:38.243Z,3.93
2017-08-17T12:47:07.748Z,4.30
2017-08-17T12:49:37.995Z,4.20
2017-08-17T12:52:07.802Z,4.10
2017-08-17T12:54:38.056Z,4.17
2017-08-17T12:57:07.941Z,4.27
2017-08-17T12:59:38.181Z,4.33
2017-08-17T13:02:08.406Z,4.13
2017-08-17T13:04:37.344Z,4.20
2017-08-17T13:07:09.971Z,3.60
2017-08-17T13:09:40.580Z,3.23
2017-08-17T13:12:12.336Z,4.17
2017-08-17T13:14:43.983Z,4.20
2017-08-17T13:17:14.235Z,3.53
2017-08-17T13:19:45.121Z,4.43
2017-08-17T13:22:15.625Z,4.17
2017-08-17T13:24:46.069Z,3.87
2017-08-17T13:27:15.491Z,3.57
2017-08-17T13:29:46.131Z,3.33
2017-08-17T13:32:18.141Z,3.73
2017-08-17T13:34:49.171Z,4.10
2017-08-17T13:37:19.533Z,3.80
2017-08-17T13:39:48.162Z,4.00
2017-08-17T13:42:15.876Z,3.77
2017-08-17T13:44:43.531Z,4.93
2017-08-17T13:47:16.257Z,4.20
2017-08-17T13:49:52.154Z,4.30
2017-08-17T13:52:22.889Z,4.00
2017-08-17T13:54:52.228Z,3.90
2017-08-17T13:57:24.084Z,4.20
2017-08-17T13:59:55.047Z,3.80
2017-08-17T14:02:25.051Z,4.00
2017-08-17T14:04:57.791Z,4.10
2017-08-17T14:07:29.679Z,4.07
2017-08-17T14:09:59.572Z,4.47
2017-08-17T14:12:30.667Z,4.00
2017-08-17T14:15:03.744Z,4.57
2017-08-17T14:17:35.410Z,4.17
2017-08-17T14:20:12.611Z,3.97
2017-08-17T14:22:45.851Z,4.27
2017-08-17T14:25:18.812Z,4.67
2017-08-17T14:27:50.206Z,4.03
2017-08-17T14:30:21.503Z,3.90
2017-08-17T14:32:50.916Z,4.60
2017-08-17T14:35:23.736Z,3.43
2017-08-17T14:37:54.587Z,4.13
2017-08-17T14:40:26.686Z,4.40
2017-08-17T14:42:56.394Z,3.67
2017-08-17T14:45:26.254Z,3.90
2017-08-17T14:47:55.578Z,4.47
2017-08-17T14:50:24.089Z,3.87
2017-08-17T14:52:53.898Z,4.17
2017-08-17T14:55:25.549Z,4.47
2017-08-17T14:57:54.734Z,4.00
2017-08-17T15:00:23.423Z,4.00
2017-08-17T15:02:53.226Z,5.80
2017-08-17T15:05:20.843Z,3.97
2017-08-17T15:07:54.264Z,4.20
2017-08-17T15:10:22.055Z,3.97
2017-08-17T15:12:52.622Z,4.00
2017-08-17T15:15:22.190Z,4.20
2017-08-17T15:17:52.316Z,4.37
2017-08-17T15:20:22.839Z,4.10
2017-08-17T15:22:53.284Z,4.10
2017-08-17T15:25:23.323Z,3.80
2017-08-17T15:27:55.448Z,4.60
2017-08-17T15:30:25.148Z,4.60
2017-08-17T15:32:54.931Z,4.30
2017-08-17T15:35:24.880Z,4.63
2017-08-17T15:37:55.477Z,4.70
2017-08-17T15:40:25.113Z,4.07
2017-08-17T15:42:55.440Z,4.17
2017-08-17T15:45:26.693Z,4.77
2017-08-17T15:48:29.571Z,4.27
2017-08-17T15:51:01.248Z,4.57
2017-08-17T15:53:31.147Z,4.63
2017-08-17T15:56:02.189Z,4.50
2017-08-17T15:58:37.135Z,4.73
2017-08-17T16:01:07.328Z,4.47
2017-08-17T16:03:36.640Z,4.20
2017-08-17T16:06:07.677Z,4.67
2017-08-17T16:08:39.219Z,4.37
2017-08-17T16:13:48.006Z,4.97
2017-08-17T16:16:20.628Z,3.77
2017-08-17T16:18:52.409Z,4.00
2017-08-17T16:21:21.585Z,4.60
2017-08-17T16:23:53.185Z,4.50
2017-08-17T16:26:20.901Z,4.00
2017-08-17T16:28:49.791Z,3.90
2017-08-17T16:31:19.908Z,4.53
2017-08-17T16:33:48.399Z,4.50
2017-08-17T16:36:18.632Z,4.70
2017-08-17T16:38:50.297Z,5.33
2017-08-17T16:41:20.591Z,5.90
2017-08-17T16:43:51.273Z,4.53
2017-08-17T16:46:25.429Z,4.57
2017-08-17T16:48:54.520Z,4.77
2017-08-17T16:51:23.297Z,5.10
2017-08-17T16:53:52.252Z,5.10
2017-08-17T16:56:22.037Z,4.90
2017-08-17T16:58:51.771Z,5.43
2017-08-17T17:01:21.829Z,5.10
2017-08-17T17:03:51.579Z,4.97
2017-08-17T17:06:21.187Z,4.83
2017-08-17T17:08:50.384Z,4.65
2017-08-17T17:11:20.677Z,5.00
2017-08-17T17:13:49.068Z,4.87
2017-08-17T17:16:17.167Z,4.20
2017-08-17T17:18:45.248Z,4.40
2017-08-17T17:21:15.790Z,4.83
2017-08-17T17:23:46.550Z,5.23
2017-08-17T17:26:17.167Z,4.80
2017-08-17T17:28:50.726Z,5.10
2017-08-17T17:31:20.795Z,5.07
2017-08-17T17:33:52.287Z,5.87
2017-08-17T17:36:25.180Z,7.83
2017-08-17T17:38:59.089Z,5.50
2017-08-17T17:41:32.368Z,5.27
2017-08-17T17:44:02.368Z,4.90
2017-08-17T17:46:31.401Z,5.37
2017-08-17T17:49:01.085Z,4.33
2017-08-17T17:51:33.455Z,4.70
2017-08-17T17:54:06.629Z,5.37
2017-08-17T17:56:37.126Z,4.43
2017-08-17T17:59:07.017Z,5.00
2017-08-17T18:01:38.086Z,5.23
2017-08-17T18:04:09.023Z,5.40
2017-08-17T18:06:39.806Z,5.00
2017-08-17T18:09:11.000Z,5.40
2017-08-17T18:11:42.347Z,5.33
2017-08-17T18:14:12.669Z,5.03
2017-08-17T18:16:45.026Z,5.43
2017-08-17T18:19:13.932Z,5.80
2017-08-17T18:21:41.540Z,5.63
2017-08-17T18:24:09.116Z,5.50
2017-08-17T18:26:36.711Z,6.20
2017-08-17T18:29:04.301Z,5.23
2017-08-17T18:31:31.918Z,5.40
2017-08-17T18:33:59.532Z,6.20
2017-08-17T18:36:27.871Z,6.40
2017-08-17T18:38:55.474Z,6.13
2017-08-17T18:41:23.487Z,5.90
2017-08-17T18:43:51.076Z,6.50
2017-08-17T18:46:18.678Z,5.87
2017-08-17T18:48:46.273Z,6.10
2017-08-17T18:51:13.881Z,6.90
2017-08-17T18:53:41.476Z,6.13
2017-08-17T18:56:09.092Z,6.23
2017-08-17T18:58:37.461Z,5.80
2017-08-17T19:01:05.061Z,6.63
2017-08-17T19:03:32.939Z,7.00
2017-08-17T19:06:00.563Z,7.00
2017-08-17T19:08:28.919Z,6.20
2017-08-17T19:10:56.511Z,6.67
2017-08-17T19:13:24.106Z,6.27
2017-08-17T19:15:51.698Z,5.53
2017-08-17T19:18:19.290Z,6.90
2017-08-17T19:20:46.920Z,7.50
2017-08-17T19:23:14.528Z,7.17
2017-08-17T19:25:42.136Z,6.60
2017-08-17T19:28:09.716Z,6.57
2017-08-17T19:30:38.388Z,8.07
2017-08-17T19:33:07.345Z,6.57
2017-08-17T19:35:34.917Z,6.90
2017-08-17T19:38:02.573Z,6.73
2017-08-17T19:40:30.146Z,6.10
2017-08-17T19:42:57.755Z,6.77
2017-08-17T19:45:25.343Z,6.60
2017-08-17T19:47:53.230Z,7.10
2017-08-17T19:50:20.850Z,7.30
2017-08-17T19:52:48.444Z,7.13
2017-08-17T19:55:16.072Z,6.57
2017-08-17T19:57:43.660Z,7.30
2017-08-17T20:00:11.285Z,7.07
2017-08-17T20:02:38.853Z,7.27
2017-08-17T20:05:06.527Z,6.67
2017-08-17T20:07:34.114Z,7.37
2017-08-17T20:10:02.072Z,7.00
2017-08-17T20:12:29.699Z,7.50
2017-08-17T20:14:57.278Z,7.27
2017-08-17T20:17:24.878Z,8.07
2017-08-17T20:19:53.204Z,7.47
2017-08-17T20:22:20.790Z,7.70
2017-08-17T20:24:48.406Z,6.80
2017-08-17T20:27:16.035Z,6.77
2017-08-17T20:29:44.374Z,7.10
2017-08-17T20:32:11.990Z,6.77
2017-08-17T20:34:39.568Z,6.93
2017-08-17T20:37:07.427Z,7.17
2017-08-17T20:39:35.015Z,7.20
2017-08-17T20:42:02.659Z,6.23
2017-08-17T20:44:30.290Z,8.17
2017-08-17T20:46:57.881Z,7.53
2017-08-17T20:49:25.454Z,6.80
2017-08-17T20:51:53.017Z,7.33
2017-08-17T20:54:20.629Z,6.60
2017-08-17T20:56:48.199Z,6.13
2017-08-17T20:59:15.801Z,7.13
2017-08-17T21:01:43.386Z,6.73
2017-08-17T21:04:11.330Z,6.00
2017-08-17T21:06:38.919Z,6.83
2017-08-17T21:09:07.316Z,6.27
2017-08-17T21:11:34.921Z,6.50
2017-08-17T21:14:02.562Z,7.10
2017-08-17T21:16:30.208Z,7.20
2017-08-17T21:18:57.818Z,6.47
2017-08-17T21:21:25.417Z,7.23
2017-08-17T21:23:53.017Z,6.80
2017-08-17T21:26:20.588Z,6.43
2017-08-17T21:28:48.158Z,6.10
2017-08-17T21:31:16.070Z,6.77
2017-08-17T21:33:43.706Z,7.33
2017-08-17T21:36:12.065Z,7.10
2017-08-17T21:38:39.685Z,6.83
2017-08-17T21:41:07.267Z,6.00
2017-08-17T21:43:34.904Z,6.57
2017-08-17T21:46:02.558Z,5.67
2017-08-17T21:48:30.143Z,6.80
2017-08-17T21:50:57.773Z,6.83
2017-08-17T21:53:25.362Z,7.20
2017-08-17T21:55:52.948Z,7.47
2017-08-17T21:58:20.620Z,6.60
2017-08-17T22:00:48.202Z,7.60
2017-08-17T22:03:16.117Z,6.30
2017-08-17T22:05:43.706Z,6.87
2017-08-17T22:08:12.037Z,7.10
2017-08-17T22:10:40.446Z,7.00
2017-08-17T22:13:08.237Z,6.50
2017-08-17T22:15:35.893Z,7.53
2017-08-17T22:18:04.304Z,7.60
2017-08-17T22:20:31.938Z,7.30
2017-08-17T22:22:59.555Z,7.90
2017-08-17T22:25:27.144Z,7.50
2017-08-17T22:27:54.820Z,6.70
2017-08-17T22:30:22.708Z,7.33
2017-08-17T22:32:50.301Z,8.00
2017-08-17T22:35:17.901Z,8.07
2017-08-17T22:37:45.500Z,6.53
2017-08-17T22:40:13.130Z,7.77
2017-08-17T22:42:40.723Z,6.73
2017-08-17T22:45:08.314Z,7.80
2017-08-17T22:47:35.904Z,7.83
2017-08-17T22:50:03.526Z,7.70
2017-08-17T22:52:31.107Z,8.03
2017-08-17T22:54:59.469Z,6.83
2017-08-17T22:57:27.421Z,7.90
2017-08-17T22:59:55.007Z,7.10
2017-08-17T23:02:22.570Z,7.70
2017-08-17T23:04:50.182Z,7.93
2017-08-17T23:07:17.773Z,8.40
2017-08-17T23:09:45.358Z,8.40
2017-08-17T23:12:12.936Z,8.80
2017-08-17T23:14:40.532Z,7.83
2017-08-17T23:17:08.085Z,8.20
2017-08-17T23:19:35.955Z,7.97
2017-08-17T23:22:03.524Z,8.03
2017-08-17T23:24:31.119Z,9.07
2017-08-17T23:26:58.708Z,7.93
2017-08-17T23:29:26.324Z,8.67
2017-08-17T23:31:54.685Z,7.97
2017-08-17T23:34:22.299Z,7.63
2017-08-17T23:36:50.014Z,9.13
2017-08-17T23:39:18.396Z,8.10
2017-08-17T23:41:46.053Z,8.60
2017-08-17T23:44:13.638Z,7.83
2017-08-17T23:46:41.493Z,9.13
2017-08-17T23:49:09.095Z,8.03
2017-08-17T23:51:36.693Z,8.43
2017-08-17T23:54:04.305Z,7.50
2017-08-17T23:56:31.893Z,8.83
2017-08-17T23:58:59.460Z,7.97
